Time;durP1;ratioP1;P1;durP2;ratioP2;P2;SDS_P1;SDS_P2;PMS_P1;PMS_P2;Temp;Humidity;BMP_temperature;BMP_pressure;BME280_temperature;BME280_humidity;BME280_pressure;Samples;Min_cycle;Max_cycle;Signal;HPM_P1;HPM_P2
2023/12/26 00:01:15;;;;;;;13.82;2.70;;;;;;;6.22;100.00;99822.56;5051871;28;20399;-46
2023/12/26 00:03:42;;;;;;;14.73;2.78;;;;;;;6.20;100.00;99833.88;5047570;28;20045;-48
2023/12/26 00:06:10;;;;;;;13.23;2.58;;;;;;;6.20;100.00;99828.38;5047986;28;20053;-48
2023/12/26 00:08:38;;;;;;;13.30;2.97;;;;;;;6.21;100.00;99829.19;5047174;28;20079;-52
2023/12/26 00:11:05;;;;;;;16.13;3.08;;;;;;;6.21;100.00;99829.19;5048171;28;20601;-50
2023/12/26 00:13:32;;;;;;;10.27;2.88;;;;;;;6.21;100.00;99823.69;5034993;28;20053;-53
2023/12/26 00:16:00;;;;;;;13.45;2.10;;;;;;;6.20;100.00;99822.91;5050545;28;20044;-49
2023/12/26 00:18:27;;;;;;;13.18;2.45;;;;;;;6.19;100.00;99826.81;5034239;28;20064;-51
2023/12/26 00:20:55;;;;;;;5.63;1.90;;;;;;;6.20;100.00;99844.88;5047581;28;20753;-48
2023/12/26 00:23:22;;;;;;;13.43;2.53;;;;;;;6.19;100.00;99832.31;5048324;28;20049;-50
2023/12/26 00:25:49;;;;;;;9.75;3.33;;;;;;;6.21;100.00;99840.19;5047250;28;20056;-53
2023/12/26 00:28:19;;;;;;;12.77;1.85;;;;;;;6.22;100.00;99842.63;5047776;28;20072;-50
2023/12/26 00:30:46;;;;;;;18.63;2.55;;;;;;;6.22;100.00;99845.38;5047166;28;20051;-50
2023/12/26 00:33:14;;;;;;;14.00;2.78;;;;;;;6.21;100.00;99852.00;5047768;28;20515;-49
2023/12/26 00:35:41;;;;;;;10.27;2.63;;;;;;;6.21;100.00;99841.00;5047109;28;20049;-50
2023/12/26 00:38:09;;;;;;;5.47;1.95;;;;;;;6.21;100.00;99848.44;5047834;28;20052;-53
2023/12/26 00:40:40;;;;;;;11.73;2.90;;;;;;;6.20;100.00;99850.38;5045347;28;20052;-48
2023/12/26 00:43:08;;;;;;;15.70;2.90;;;;;;;6.19;100.00;99859.78;5057694;28;20052;-50
2023/12/26 00:45:35;;;;;;;10.02;2.47;;;;;;;6.19;100.00;99848.78;5048970;28;20041;-53
2023/12/26 00:48:03;;;;;;;10.13;2.20;;;;;;;6.20;100.00;99857.81;5047464;28;20068;-52
2023/12/26 00:50:31;;;;;;;10.63;2.15;;;;;;;6.19;100.00;99857.03;5051421;28;20060;-53
2023/12/26 00:52:58;;;;;;;8.13;2.35;;;;;;;6.18;100.00;99858.16;5046167;28;20049;-51
2023/12/26 00:55:25;;;;;;;8.95;2.38;;;;;;;6.19;100.00;99862.53;5044851;28;20525;-50
2023/12/26 00:57:53;;;;;;;18.15;2.15;;;;;;;6.20;100.00;99855.88;5046888;28;20044;-53
2023/12/26 01:00:20;;;;;;;15.77;2.88;;;;;;;6.20;100.00;99860.56;5060256;28;20045;-49
2023/12/26 01:02:48;;;;;;;12.38;3.10;;;;;;;6.19;100.00;99859.78;5046836;28;20617;-54
2023/12/26 01:05:17;;;;;;;12.90;2.60;;;;;;;6.21;100.00;99873.97;5046759;28;20049;-51
2023/12/26 01:07:44;;;;;;;7.88;1.63;;;;;;;6.21;100.00;99887.72;5056213;28;20045;-52
2023/12/26 01:10:11;;;;;;;15.25;2.38;;;;;;;6.21;100.00;99884.97;5045588;28;20043;-49
2023/12/26 01:12:39;;;;;;;12.68;2.17;;;;;;;6.21;100.00;99895.16;5040839;28;20045;-52
2023/12/26 01:15:06;;;;;;;14.10;4.00;;;;;;;6.21;100.00;99898.72;5047346;28;20053;-51
2023/12/26 01:17:34;;;;;;;12.02;2.72;;;;;;;6.23;100.00;99898.38;5045987;28;20057;-55
2023/12/26 01:20:02;;;;;;;13.23;4.57;;;;;;;6.23;100.00;99904.66;5047375;28;20056;-54
2023/12/26 01:22:30;;;;;;;12.13;1.92;;;;;;;6.27;100.00;99918.56;5044979;28;20043;-49
2023/12/26 01:24:58;;;;;;;19.48;3.13;;;;;;;6.30;100.00;99921.41;5046019;28;20045;-51
2023/12/26 01:27:25;;;;;;;8.27;1.88;;;;;;;6.34;100.00;99936.13;5044239;28;20059;-51
2023/12/26 01:29:53;;;;;;;7.20;1.65;;;;;;;6.37;100.00;99937.38;5043765;28;20049;-52
2023/12/26 01:32:20;;;;;;;14.75;3.33;;;;;;;6.38;100.00;99941.75;5045050;28;20045;-50
2023/12/26 01:34:48;;;;;;;11.40;2.38;;;;;;;6.36;100.00;99941.25;5046436;28;20687;-52
2023/12/26 01:37:15;;;;;;;13.52;2.47;;;;;;;6.35;100.00;99945.16;5042487;28;20617;-53
2023/12/26 01:39:43;;;;;;;11.38;2.35;;;;;;;6.38;100.00;99950.00;5046407;28;20395;-49
2023/12/26 01:42:10;;;;;;;10.02;2.22;;;;;;;6.41;100.00;99954.78;5046132;28;20734;-53
2023/12/26 01:44:38;;;;;;;8.45;1.70;;;;;;;6.42;100.00;99962.72;5046813;28;20076;-53
2023/12/26 01:47:05;;;;;;;16.75;3.35;;;;;;;6.45;100.00;99966.75;5027531;28;20042;-51
2023/12/26 01:49:33;;;;;;;9.85;2.78;;;;;;;6.47;100.00;99968.03;5046708;28;20053;-52
2023/12/26 01:52:06;;;;;;;12.65;2.40;;;;;;;6.49;100.00;99982.22;5045061;28;20049;-51
2023/12/26 01:54:37;;;;;;;11.83;3.23;;;;;;;6.52;100.00;99984.31;5045862;28;20049;-55
2023/12/26 01:57:07;;;;;;;11.82;3.10;;;;;;;6.55;99.65;100000.13;5051485;28;20672;-49
2023/12/26 01:59:36;;;;;;;11.82;3.50;;;;;;;6.57;99.76;100008.84;5050011;28;20076;-48
2023/12/26 02:02:05;;;;;;;14.48;2.30;;;;;;;6.59;99.46;100012.06;5050405;28;20052;-51
2023/12/26 02:04:34;;;;;;;9.80;2.35;;;;;;;6.60;99.66;100016.44;5050691;28;20107;-52
2023/12/26 02:07:02;;;;;;;5.95;2.10;;;;;;;6.61;99.41;100026.31;5038533;28;20541;-51
2023/12/26 02:09:30;;;;;;;12.80;1.77;;;;;;;6.63;99.39;100037.75;5050207;28;20052;-53
2023/12/26 02:11:58;;;;;;;10.10;2.28;;;;;;;6.65;99.34;100038.22;5050148;28;20045;-52
2023/12/26 02:14:26;;;;;;;13.20;2.10;;;;;;;6.67;99.13;100035.94;5050268;28;20051;-52
2023/12/26 02:16:55;;;;;;;9.23;3.03;;;;;;;6.67;99.18;100033.19;5049584;28;20068;-51
2023/12/26 02:19:24;;;;;;;11.20;4.43;;;;;;;6.68;98.80;100045.00;5047012;28;20045;-54
2023/12/26 02:21:52;;;;;;;11.27;2.05;;;;;;;6.66;98.90;100053.59;5049402;28;20045;-53
2023/12/26 02:24:19;;;;;;;12.32;2.85;;;;;;;6.61;98.94;100055.75;5049542;28;20514;-51
2023/12/26 02:26:53;;;;;;;8.52;1.77;;;;;;;6.59;98.57;100052.53;5047083;28;20037;-55
2023/12/26 02:29:21;;;;;;;18.58;3.50;;;;;;;6.59;98.82;100071.78;5049211;28;20037;-54
2023/12/26 02:31:53;;;;;;;10.15;1.60;;;;;;;6.58;98.66;100076.47;5049827;28;20037;-54
2023/12/26 02:34:22;;;;;;;13.07;3.25;;;;;;;6.58;98.84;100065.47;5050319;28;20728;-51
2023/12/26 02:36:50;;;;;;;10.38;2.03;;;;;;;6.62;98.72;100076.59;5049524;28;20045;-52
2023/12/26 02:39:18;;;;;;;15.10;2.70;;;;;;;6.64;98.43;100086.16;5049314;28;20044;-53
2023/12/26 02:41:46;;;;;;;12.30;2.05;;;;;;;6.68;98.46;100086.25;5049904;28;20060;-53
2023/12/26 02:44:13;;;;;;;16.40;2.28;;;;;;;6.69;98.55;100104.38;5049621;28;20053;-55
2023/12/26 02:46:40;;;;;;;16.42;2.25;;;;;;;6.70;98.42;100120.53;5049294;28;20053;-54
2023/12/26 02:49:08;;;;;;;12.38;2.05;;;;;;;6.71;98.26;100115.84;5054420;28;20045;-55
2023/12/26 02:51:35;;;;;;;7.20;2.03;;;;;;;6.73;98.38;100121.81;5048463;28;20052;-51
2023/12/26 02:54:03;;;;;;;13.95;2.08;;;;;;;6.74;98.43;100117.94;5049649;28;20544;-53
2023/12/26 02:56:30;;;;;;;10.65;2.60;;;;;;;6.73;98.41;100119.88;5048817;28;20412;-52
2023/12/26 02:58:58;;;;;;;10.50;1.85;;;;;;;6.72;98.27;100132.00;5040864;28;20056;-52
2023/12/26 03:01:25;;;;;;;5.15;1.08;;;;;;;6.70;98.34;100131.53;5102104;22;20072;-51
2023/12/26 03:03:52;;;;;;;8.50;2.88;;;;;;;6.70;98.34;100145.31;5030293;28;20060;-51
2023/12/26 03:06:20;;;;;;;9.48;2.03;;;;;;;6.70;98.18;100158.25;5030148;28;20045;-51
2023/12/26 03:08:47;;;;;;;10.52;1.45;;;;;;;6.70;98.03;100161.00;5029695;28;20139;-53
2023/12/26 03:11:14;;;;;;;10.52;1.73;;;;;;;6.73;98.10;100171.34;5029323;28;20041;-53
2023/12/26 03:13:42;;;;;;;7.57;1.60;;;;;;;6.73;98.08;100185.09;5030511;28;20045;-49
2023/12/26 03:16:09;;;;;;;4.03;1.05;;;;;;;6.73;98.21;100194.16;5029873;28;20057;-51
2023/12/26 03:18:36;;;;;;;9.65;1.60;;;;;;;6.74;98.06;100209.53;5021833;28;20423;-52
2023/12/26 03:21:04;;;;;;;9.27;1.15;;;;;;;6.73;98.26;100213.41;5028329;28;20052;-53
2023/12/26 03:23:31;;;;;;;6.68;2.42;;;;;;;6.74;98.27;100222.47;5029971;28;20042;-50
2023/12/26 03:25:59;;;;;;;5.50;1.00;;;;;;;6.72;98.15;100231.03;5029956;28;20053;-52
2023/12/26 03:28:26;;;;;;;6.30;1.13;;;;;;;6.69;97.96;100237.22;5032220;28;20056;-53
2023/12/26 03:30:53;;;;;;;6.65;1.00;;;;;;;6.65;97.97;100247.25;5029582;28;20679;-52
2023/12/26 03:33:21;;;;;;;5.00;1.80;;;;;;;6.59;97.88;100248.59;5029820;28;20045;-51
2023/12/26 03:35:48;;;;;;;7.50;1.15;;;;;;;6.54;98.06;100257.03;5034089;28;20051;-52
2023/12/26 03:38:15;;;;;;;3.97;0.93;;;;;;;6.47;98.03;100267.72;5035143;28;20395;-53
2023/12/26 03:40:43;;;;;;;7.82;1.40;;;;;;;6.42;98.05;100262.41;5029437;28;20046;-50
2023/12/26 03:43:10;;;;;;;6.03;1.38;;;;;;;6.36;98.07;100268.41;5029139;28;20049;-53
2023/12/26 03:45:38;;;;;;;6.85;1.20;;;;;;;6.31;97.97;100263.91;5029973;28;20063;-48
2023/12/26 03:48:05;;;;;;;6.25;2.42;;;;;;;6.27;98.20;100278.66;5029322;28;20069;-52
2023/12/26 03:50:33;;;;;;;6.57;0.93;;;;;;;6.22;98.15;100287.88;5028013;28;20052;-51
2023/12/26 03:53:01;;;;;;;7.65;2.45;;;;;;;6.17;98.33;100284.50;5029619;28;20041;-49
2023/12/26 03:55:29;;;;;;;6.07;0.70;;;;;;;6.11;98.18;100290.16;5029070;28;20052;-53
2023/12/26 03:57:56;;;;;;;6.53;1.15;;;;;;;6.05;98.34;100285.97;5029528;28;20410;-53
2023/12/26 04:00:23;;;;;;;9.32;1.70;;;;;;;6.02;98.40;100299.53;5042918;28;20092;-51
2023/12/26 04:02:51;;;;;;;9.35;1.92;;;;;;;5.98;98.39;100304.09;5028879;28;20060;-53
2023/12/26 04:05:19;;;;;;;6.18;0.90;;;;;;;5.94;98.26;100308.59;5027502;28;20064;-51
2023/12/26 04:07:48;;;;;;;2.60;0.88;;;;;;;5.91;98.38;100309.25;5029034;28;20049;-51
2023/12/26 04:10:15;;;;;;;6.60;1.08;;;;;;;5.87;98.47;100309.13;5011098;28;20114;-52
2023/12/26 04:12:42;;;;;;;2.90;1.05;;;;;;;5.85;98.51;100307.81;5024628;28;20053;-50
2023/12/26 04:15:10;;;;;;;5.72;1.15;;;;;;;5.82;98.65;100308.44;5028589;28;20049;-53
2023/12/26 04:17:38;;;;;;;5.35;2.10;;;;;;;5.81;98.73;100320.53;5029351;28;20049;-54
2023/12/26 04:20:06;;;;;;;4.63;1.10;;;;;;;5.78;98.79;100321.19;5027581;28;20056;-54
2023/12/26 04:22:33;;;;;;;6.75;1.13;;;;;;;5.76;98.86;100317.97;5027553;28;20050;-49
2023/12/26 04:25:00;;;;;;;9.15;2.35;;;;;;;5.75;98.88;100324.56;5028397;28;20041;-53
2023/12/26 04:27:28;;;;;;;5.55;1.00;;;;;;;5.72;98.64;100328.00;5029249;28;20045;-49
2023/12/26 04:29:55;;;;;;;11.73;1.77;;;;;;;5.71;99.02;100338.16;5028612;28;20057;-52
2023/12/26 04:32:23;;;;;;;6.50;1.23;;;;;;;5.69;99.07;100345.94;5028067;28;20050;-54
2023/12/26 04:34:51;;;;;;;3.95;0.80;;;;;;;5.65;98.94;100353.19;5028409;28;20049;-53
2023/12/26 04:37:19;;;;;;;7.07;1.30;;;;;;;5.64;99.15;100348.03;5041121;28;20156;-53
2023/12/26 04:39:46;;;;;;;4.75;0.85;;;;;;;5.61;99.07;100356.91;5027203;28;20072;-50
2023/12/26 04:42:14;;;;;;;5.90;0.95;;;;;;;5.58;99.37;100360.28;5028048;28;20410;-54
2023/12/26 04:44:41;;;;;;;12.75;1.50;;;;;;;5.56;99.43;100366.06;5028434;28;20511;-54
2023/12/26 04:47:08;;;;;;;7.45;1.10;;;;;;;5.54;99.61;100369.16;5032187;28;20045;-53
2023/12/26 04:49:36;;;;;;;10.60;1.55;;;;;;;5.53;99.19;100373.03;5029195;28;20038;-49
2023/12/26 04:52:03;;;;;;;6.75;1.30;;;;;;;5.50;99.22;100381.94;5028194;28;20135;-53
2023/12/26 04:54:31;;;;;;;5.05;1.27;;;;;;;5.48;99.37;100378.66;5026715;28;20379;-51
2023/12/26 04:56:58;;;;;;;6.15;2.08;;;;;;;5.46;99.53;100391.09;5028698;28;20046;-53
2023/12/26 04:59:26;;;;;;;8.15;2.25;;;;;;;5.42;99.72;100390.94;5028391;28;20050;-53
2023/12/26 05:01:53;;;;;;;7.00;1.58;;;;;;;5.40;99.83;100397.88;5028184;28;20222;-54
2023/12/26 05:04:20;;;;;;;7.78;1.52;;;;;;;5.39;99.77;100397.06;5027990;28;20041;-53
2023/12/26 05:06:49;;;;;;;7.43;2.10;;;;;;;5.35;100.00;100412.53;5009758;28;20069;-52
2023/12/26 05:09:16;;;;;;;6.10;1.00;;;;;;;5.32;100.00;100413.19;5026524;28;20064;-51
2023/12/26 05:11:44;;;;;;;4.53;1.30;;;;;;;5.29;100.00;100411.09;5022993;28;20049;-50
2023/12/26 05:14:12;;;;;;;6.35;1.42;;;;;;;5.26;100.00;100427.38;5009175;28;20057;-50
2023/12/26 05:16:42;;;;;;;5.97;1.05;;;;;;;5.24;100.00;100426.91;5026771;28;20069;-50
2023/12/26 05:19:12;;;;;;;5.10;1.08;;;;;;;5.21;100.00;100433.84;5027720;28;20050;-50
2023/12/26 05:21:39;;;;;;;6.32;1.63;;;;;;;5.21;100.00;100439.31;5032348;28;20053;-52
2023/12/26 05:24:07;;;;;;;5.05;0.90;;;;;;;5.20;100.00;100436.88;5030824;28;20447;-51
2023/12/26 05:26:42;;;;;;;10.45;1.55;;;;;;;5.18;100.00;100444.63;5029434;28;20057;-55
2023/12/26 05:29:10;;;;;;;7.05;1.15;;;;;;;5.14;100.00;100443.63;5026725;28;20044;-52
2023/12/26 05:31:38;;;;;;;6.53;1.08;;;;;;;5.11;100.00;100450.56;5026863;28;20501;-56
2023/12/26 05:34:10;;;;;;;9.30;1.27;;;;;;;5.09;100.00;100447.31;5030457;28;20533;-52
2023/12/26 05:36:38;;;;;;;5.88;1.15;;;;;;;5.06;100.00;100447.13;5030702;28;20052;-54
2023/12/26 05:39:08;;;;;;;8.65;1.80;;;;;;;5.04;100.00;100461.19;5027445;28;20046;-49
2023/12/26 05:41:36;;;;;;;4.72;0.93;;;;;;;5.03;100.00;100469.75;5030915;28;20057;-52
2023/12/26 05:44:03;;;;;;;6.28;1.38;;;;;;;5.01;100.00;100475.53;5029653;28;20050;-51
2023/12/26 05:46:31;;;;;;;7.32;1.35;;;;;;;4.98;100.00;100483.59;5030514;28;20041;-54
2023/12/26 05:48:59;;;;;;;8.45;1.48;;;;;;;4.96;100.00;100497.59;5036609;28;20729;-51
2023/12/26 05:51:27;;;;;;;9.98;2.55;;;;;;;4.93;100.00;100495.47;5030825;28;20042;-50
2023/12/26 05:53:54;;;;;;;9.60;1.65;;;;;;;4.90;100.00;100491.44;5029605;28;20746;-49
2023/12/26 05:56:22;;;;;;;5.93;1.48;;;;;;;4.88;100.00;100501.09;5031082;28;20050;-51
2023/12/26 05:58:49;;;;;;;6.78;1.25;;;;;;;4.86;100.00;100500.63;5030415;28;20076;-51
2023/12/26 06:01:17;;;;;;;5.63;1.10;;;;;;;4.85;100.00;100507.22;5035769;28;20064;-52
2023/12/26 06:03:44;;;;;;;9.98;1.50;;;;;;;4.80;100.00;100505.41;5029897;28;20045;-50
2023/12/26 06:06:12;;;;;;;4.78;1.38;;;;;;;4.79;100.00;100514.75;5030523;28;20060;-54
2023/12/26 06:08:40;;;;;;;9.52;1.20;;;;;;;4.79;100.00;100524.94;5037717;28;20053;-50
2023/12/26 06:11:08;;;;;;;7.38;1.20;;;;;;;4.77;100.00;100524.41;5026208;28;20084;-47
2023/12/26 06:13:36;;;;;;;7.85;1.17;;;;;;;4.75;100.00;100526.66;5026148;28;20053;-48
2023/12/26 06:16:04;;;;;;;5.97;1.13;;;;;;;4.74;100.00;100538.75;5029553;28;20049;-51
2023/12/26 06:18:31;;;;;;;10.77;1.90;;;;;;;4.72;100.00;100541.00;5030612;28;20057;-53
2023/12/26 06:20:59;;;;;;;15.98;2.78;;;;;;;4.71;100.00;100544.88;5030554;28;20061;-50
2023/12/26 06:23:26;;;;;;;5.03;1.27;;;;;;;4.69;100.00;100549.84;5030104;28;20046;-51
2023/12/26 06:25:56;;;;;;;4.85;1.25;;;;;;;4.67;100.00;100555.66;5029929;28;20057;-52
2023/12/26 06:28:24;;;;;;;8.02;1.67;;;;;;;4.66;100.00;100575.16;5029749;28;20144;-56
2023/12/26 06:30:51;;;;;;;10.57;1.70;;;;;;;4.65;100.00;100573.53;5032874;28;20054;-56
2023/12/26 06:33:19;;;;;;;9.38;1.83;;;;;;;4.64;100.00;100574.63;5038991;28;20041;-53
2023/12/26 06:35:47;;;;;;;8.55;1.40;;;;;;;4.63;100.00;100582.06;5011686;28;20048;-53
2023/12/26 06:38:14;;;;;;;5.65;1.20;;;;;;;4.63;100.00;100584.00;5030320;28;20136;-52
2023/12/26 06:40:42;;;;;;;12.55;1.73;;;;;;;4.61;100.00;100588.97;5028579;28;20060;-54
2023/12/26 06:43:15;;;;;;;7.18;1.55;;;;;;;4.61;100.00;100588.97;5018394;28;20049;-53
2023/12/26 06:45:43;;;;;;;11.50;1.30;;;;;;;4.60;100.00;100598.31;5042888;28;20045;-52
2023/12/26 06:48:11;;;;;;;3.47;1.00;;;;;;;4.59;100.00;100602.19;5028956;28;20049;-53
2023/12/26 06:50:38;;;;;;;5.25;1.10;;;;;;;4.58;100.00;100611.53;5029158;28;20045;-52
2023/12/26 06:53:06;;;;;;;4.28;1.83;;;;;;;4.57;100.00;100615.38;5012034;28;20049;-54
2023/12/26 06:55:33;;;;;;;7.22;1.58;;;;;;;4.57;100.00;100623.63;5029874;28;20052;-52
2023/12/26 06:58:00;;;;;;;7.13;0.95;;;;;;;4.55;100.00;100634.09;5030005;28;20068;-52
2023/12/26 07:00:28;;;;;;;5.53;1.25;;;;;;;4.54;100.00;100640.69;5029187;28;21183;-53
2023/12/26 07:02:55;;;;;;;8.85;1.52;;;;;;;4.53;100.00;100641.78;5028799;28;20053;-53
2023/12/26 07:05:23;;;;;;;6.20;1.88;;;;;;;4.52;100.00;100643.75;5016369;28;20057;-54
2023/12/26 07:07:51;;;;;;;4.78;1.52;;;;;;;4.52;100.00;100642.91;5042235;28;20072;-53
2023/12/26 07:10:18;;;;;;;4.10;1.20;;;;;;;4.51;100.00;100644.03;5018243;28;20052;-53
2023/12/26 07:12:46;;;;;;;8.95;2.08;;;;;;;4.51;100.00;100641.28;5028294;28;20046;-53
2023/12/26 07:15:17;;;;;;;1.60;0.73;;;;;;;4.49;100.00;100643.53;5010988;28;20049;-52
2023/12/26 07:17:45;;;;;;;10.20;1.13;;;;;;;4.48;100.00;100648.19;5024529;28;20060;-54
2023/12/26 07:20:13;;;;;;;8.23;1.50;;;;;;;4.46;100.00;100655.09;5028436;28;20056;-52
2023/12/26 07:22:40;;;;;;;9.63;1.60;;;;;;;4.44;100.00;100652.69;5029383;28;20046;-52
2023/12/26 07:25:07;;;;;;;7.78;1.40;;;;;;;4.44;100.00;100657.34;5029210;28;20061;-51
2023/12/26 07:27:35;;;;;;;6.68;1.20;;;;;;;4.45;100.00;100661.72;5028151;28;20051;-53
2023/12/26 07:30:02;;;;;;;14.75;2.65;;;;;;;4.41;100.00;100667.00;5027817;28;20419;-53
2023/12/26 07:32:30;;;;;;;8.75;1.70;;;;;;;4.41;100.00;100683.44;5028920;28;20064;-53
2023/12/26 07:34:57;;;;;;;7.38;1.02;;;;;;;4.40;100.00;100692.78;5028365;28;20058;-49
2023/12/26 07:37:25;;;;;;;4.78;1.77;;;;;;;4.39;100.00;100690.34;5027754;28;20037;-54
2023/12/26 07:39:52;;;;;;;3.55;1.20;;;;;;;4.39;100.00;100710.34;5028111;28;20415;-53
2023/12/26 07:42:19;;;;;;;4.38;1.05;;;;;;;4.39;100.00;100709.53;5027651;28;20121;-52
2023/12/26 07:44:47;;;;;;;11.43;2.78;;;;;;;4.39;100.00;100720.50;5028894;28;20052;-51
2023/12/26 07:47:16;;;;;;;6.30;1.35;;;;;;;4.37;100.00;100725.47;5027651;28;20057;-54
2023/12/26 07:49:43;;;;;;;4.43;1.58;;;;;;;4.36;100.00;100735.63;5032416;28;20052;-52
2023/12/26 07:52:11;;;;;;;7.28;1.23;;;;;;;4.37;100.00;100744.66;5027930;28;20049;-54
2023/12/26 07:54:38;;;;;;;4.88;1.90;;;;;;;4.36;100.00;100743.03;5028144;28;20128;-54
2023/12/26 07:57:05;;;;;;;7.13;1.33;;;;;;;4.36;100.00;100743.03;5028284;28;20064;-52
2023/12/26 07:59:33;;;;;;;7.65;3.08;;;;;;;4.34;100.00;100748.00;5027884;28;20049;-51
2023/12/26 08:02:00;;;;;;;13.57;2.20;;;;;;;4.33;100.00;100747.19;5030507;28;20053;-53
2023/12/26 08:04:27;;;;;;;13.77;1.70;;;;;;;4.30;100.00;100754.09;5028503;28;20057;-53
2023/12/26 08:06:55;;;;;;;9.55;1.83;;;;;;;4.29;100.00;100757.94;5028156;28;20041;-51
2023/12/26 08:09:22;;;;;;;8.55;1.80;;;;;;;4.28;100.00;100750.84;5027796;28;20053;-54
2023/12/26 08:11:49;;;;;;;6.60;2.00;;;;;;;4.27;100.00;100751.94;5028298;28;20048;-50
2023/12/26 08:14:17;;;;;;;10.80;1.77;;;;;;;4.26;100.00;100758.53;5028328;28;20042;-51
2023/12/26 08:16:46;;;;;;;5.78;1.73;;;;;;;4.25;100.00;100762.41;5027324;28;20227;-53
2023/12/26 08:19:14;;;;;;;7.50;1.27;;;;;;;4.25;100.00;100762.41;5026920;28;20060;-51
2023/12/26 08:21:45;;;;;;;7.72;1.15;;;;;;;4.24;100.00;100758.03;5027538;28;20049;-52
2023/12/26 08:24:13;;;;;;;6.88;1.40;;;;;;;4.23;100.00;100758.34;5027362;28;20611;-52
2023/12/26 08:26:41;;;;;;;7.22;1.55;;;;;;;4.21;100.00;100758.63;5027576;28;20056;-53
2023/12/26 08:29:09;;;;;;;9.57;1.58;;;;;;;4.20;100.00;100748.81;5029969;28;20054;-47
2023/12/26 08:31:36;;;;;;;7.20;2.15;;;;;;;4.18;100.00;100753.75;5027411;28;20238;-54
2023/12/26 08:34:03;;;;;;;7.32;1.60;;;;;;;4.17;100.00;100746.66;5027534;28;20095;-54
2023/12/26 08:36:31;;;;;;;9.40;1.60;;;;;;;4.17;100.00;100748.59;5018392;28;20050;-51
2023/12/26 08:38:58;;;;;;;5.93;1.55;;;;;;;4.15;100.00;100743.44;5023638;28;20418;-49
2023/12/26 08:41:26;;;;;;;3.83;1.20;;;;;;;4.14;100.00;100769.19;5027984;28;20060;-53
2023/12/26 08:43:53;;;;;;;8.90;1.08;;;;;;;4.14;100.00;100766.44;5021331;28;20395;-54
2023/12/26 08:46:22;;;;;;;5.13;1.10;;;;;;;4.12;100.00;100779.66;5027933;28;20146;-53
2023/12/26 08:48:49;;;;;;;9.68;1.45;;;;;;;4.13;100.00;100791.41;5026495;28;20107;-51
2023/12/26 08:51:18;;;;;;;13.90;2.03;;;;;;;4.13;100.00;100792.22;5027150;28;20041;-52
2023/12/26 08:53:48;;;;;;;14.23;2.38;;;;;;;4.12;100.00;100796.09;5026416;28;20048;-53
2023/12/26 08:56:16;;;;;;;6.20;2.28;;;;;;;4.12;100.00;100796.09;5002411;28;20041;-53
2023/12/26 08:58:43;;;;;;;6.07;1.27;;;;;;;4.12;100.00;100804.31;5027677;28;20044;-51
2023/12/26 09:01:11;;;;;;;11.65;1.50;;;;;;;4.11;100.00;100805.41;5038692;28;20098;-51
2023/12/26 09:03:38;;;;;;;6.72;1.48;;;;;;;4.11;100.00;100802.66;5028485;28;20056;-51
2023/12/26 09:06:09;;;;;;;11.00;2.55;;;;;;;4.10;100.00;100798.28;5026924;28;20049;-48
2023/12/26 09:08:37;;;;;;;6.63;1.80;;;;;;;4.11;100.00;100804.59;5027314;28;20041;-52
2023/12/26 09:11:04;;;;;;;10.00;2.15;;;;;;;4.11;100.00;100815.53;5023737;28;20662;-52
2023/12/26 09:13:32;;;;;;;7.90;2.63;;;;;;;4.09;100.00;100815.84;5027980;28;20045;-54
2023/12/26 09:15:59;;;;;;;6.95;1.92;;;;;;;4.09;100.00;100821.34;5027534;28;20085;-53
2023/12/26 09:18:27;;;;;;;3.88;1.90;;;;;;;4.10;100.00;100814.72;5027197;28;20076;-52
2023/12/26 09:20:54;;;;;;;8.27;2.67;;;;;;;4.11;100.00;100821.84;5028135;28;20045;-52
2023/12/26 09:23:22;;;;;;;8.57;1.42;;;;;;;4.12;100.00;100820.75;5031947;28;20053;-52
2023/12/26 09:25:49;;;;;;;12.07;1.90;;;;;;;4.13;100.00;100822.34;5031472;28;20048;-53
2023/12/26 09:28:17;;;;;;;6.45;1.35;;;;;;;4.15;100.00;100828.38;5029534;28;20049;-53
2023/12/26 09:30:44;;;;;;;5.97;1.48;;;;;;;4.17;100.00;100836.28;5039778;28;20056;-52
2023/12/26 09:33:12;;;;;;;5.90;1.08;;;;;;;4.16;100.00;100835.44;5026958;28;20048;-54
2023/12/26 09:35:39;;;;;;;4.85;1.05;;;;;;;4.15;100.00;100855.75;5025255;28;20046;-52
2023/12/26 09:38:10;;;;;;;6.57;1.30;;;;;;;4.16;100.00;100857.38;5025123;28;20061;-52
2023/12/26 09:40:41;;;;;;;13.57;1.70;;;;;;;4.17;100.00;100869.16;5025862;28;20042;-50
2023/12/26 09:43:09;;;;;;;4.68;1.73;;;;;;;4.17;100.00;100861.75;5025371;28;20058;-51
2023/12/26 09:45:36;;;;;;;9.40;1.83;;;;;;;4.19;100.00;100867.72;5025276;28;20928;-54
2023/12/26 09:48:04;;;;;;;6.72;1.60;;;;;;;4.17;100.00;100869.97;5024447;28;20053;-54
2023/12/26 09:50:31;;;;;;;13.65;2.60;;;;;;;4.18;100.00;100870.78;5026247;28;20048;-51
2023/12/26 09:53:00;;;;;;;7.72;1.38;;;;;;;4.17;100.00;100875.44;5026609;28;20041;-52
2023/12/26 09:55:28;;;;;;;7.00;1.17;;;;;;;4.15;100.00;100877.69;5041933;28;20072;-56
2023/12/26 09:57:57;;;;;;;5.53;1.88;;;;;;;4.16;100.00;100893.00;5025302;28;20136;-53
2023/12/26 10:00:28;;;;;;;4.82;1.45;;;;;;;4.18;100.00;100904.47;5026752;28;20058;-49
2023/12/26 10:02:56;;;;;;;5.10;1.23;;;;;;;4.20;100.00;100907.75;5025788;28;20049;-53
2023/12/26 10:05:25;;;;;;;4.57;1.60;;;;;;;4.22;100.00;100907.44;5025982;28;20041;-53
2023/12/26 10:07:53;;;;;;;11.73;2.17;;;;;;;4.24;100.00;100897.78;5025525;28;20049;-54
2023/12/26 10:10:21;;;;;;;6.80;2.25;;;;;;;4.28;100.00;100900.75;5027544;28;20053;-53
2023/12/26 10:12:50;;;;;;;6.80;1.73;;;;;;;4.33;100.00;100897.94;5026060;28;20054;-55
2023/12/26 10:15:17;;;;;;;7.65;1.73;;;;;;;4.36;100.00;100902.81;5025754;28;20445;-54
2023/12/26 10:17:45;;;;;;;5.28;1.30;;;;;;;4.41;100.00;100907.38;5027632;28;20053;-52
2023/12/26 10:20:17;;;;;;;7.43;1.88;;;;;;;4.47;100.00;100914.41;5029934;28;20423;-55
2023/12/26 10:22:45;;;;;;;6.43;0.98;;;;;;;4.52;100.00;100903.34;5012715;28;20044;-51
2023/12/26 10:25:14;;;;;;;6.53;1.35;;;;;;;4.56;100.00;100904.38;5029822;28;20057;-54
2023/12/26 10:27:54;;;;;;;9.23;2.15;;;;;;;4.59;100.00;100893.63;5028098;28;20045;-54
2023/12/26 10:30:24;;;;;;;8.75;2.25;;;;;;;4.63;100.00;100899.31;5028735;28;20419;-54
2023/12/26 10:33:02;;;;;;;5.70;1.48;;;;;;;4.65;100.00;100897.91;5028504;28;20045;-53
2023/12/26 10:35:30;;;;;;;9.23;2.00;;;;;;;4.70;100.00;100900.56;5028864;28;20429;-50
2023/12/26 10:37:58;;;;;;;9.13;1.85;;;;;;;4.73;100.00;100905.44;5011865;28;20064;-52
2023/12/26 10:40:26;;;;;;;6.25;1.83;;;;;;;4.76;100.00;100910.31;5028736;28;20411;-53
2023/12/26 10:42:56;;;;;;;8.45;2.25;;;;;;;4.82;100.00;100914.56;5029151;28;20053;-54
2023/12/26 10:45:24;;;;;;;12.38;1.90;;;;;;;4.86;100.00;100921.09;5031490;28;20037;-53
2023/12/26 10:47:55;;;;;;;9.27;1.67;;;;;;;4.88;100.00;100915.31;5028087;28;20049;-55
2023/12/26 10:50:24;;;;;;;9.63;4.68;;;;;;;4.92;100.00;100913.59;5028171;28;20402;-50
2023/12/26 10:53:16;;;;;;;5.40;1.52;;;;;;;4.94;100.00;100916.84;5029125;28;20045;-52
2023/12/26 10:55:45;;;;;;;2.88;1.02;;;;;;;4.97;100.00;100921.72;5017288;28;20042;-52
2023/12/26 10:58:31;;;;;;;2.40;1.58;;;;;;;4.98;100.00;100912.34;5027560;28;20033;-50
2023/12/26 11:01:00;;;;;;;4.88;1.35;;;;;;;5.01;100.00;100905.44;5027777;28;20046;-53
2023/12/26 13:53:05;;;;;;;8.35;3.70;;;;;;;6.26;100.00;100860.63;5024684;28;19925;-54
2023/12/26 13:56:10;;;;;;;10.00;3.50;;;;;;;6.26;100.00;100838.63;5030140;28;20049;-51
2023/12/26 13:59:15;;;;;;;15.90;4.80;;;;;;;6.23;100.00;100839.25;5028410;28;20468;-51
2023/12/26 14:02:20;;;;;;;18.33;7.45;;;;;;;6.23;100.00;100844.75;5029487;28;20057;-52
2023/12/26 14:05:24;;;;;;;18.83;8.77;;;;;;;6.24;100.00;100846.41;5028508;28;20041;-54
2023/12/26 14:08:29;;;;;;;17.45;8.55;;;;;;;6.27;100.00;100842.22;5029972;28;20042;-53
2023/12/26 14:11:33;;;;;;;19.02;7.80;;;;;;;6.26;100.00;100822.16;5026805;28;20060;-55
2023/12/26 14:14:38;;;;;;;19.55;8.63;;;;;;;6.26;100.00;100826.81;5024937;28;20046;-52
2023/12/26 14:17:43;;;;;;;15.23;7.47;;;;;;;6.25;100.00;100833.47;5029461;28;20061;-53
2023/12/26 14:20:47;;;;;;;15.38;7.40;;;;;;;6.26;100.00;100821.31;5027960;28;20041;-52
2023/12/26 14:23:52;;;;;;;15.20;7.18;;;;;;;6.25;100.00;100817.75;5026580;28;20041;-56
2023/12/26 14:26:57;;;;;;;18.65;6.85;;;;;;;6.24;100.00;100818.91;5011192;28;20053;-50